sensor_id;sensor_type;location;lat;lon;timestamp;temperature;humidity
56538;DHT22;42435;53.292;6.000;2023-11-19T00:00:13;13.00;89.30
56538;DHT22;42435;53.292;6.000;2023-11-19T00:02:40;13.00;89.30
56538;DHT22;42435;53.292;6.000;2023-11-19T00:05:06;13.10;89.30
56538;DHT22;42435;53.292;6.000;2023-11-19T00:07:35;13.10;89.30
56538;DHT22;42435;53.292;6.000;2023-11-19T00:10:02;13.20;89.30
56538;DHT22;42435;53.292;6.000;2023-11-19T00:12:32;13.20;89.30
56538;DHT22;42435;53.292;6.000;2023-11-19T00:14:58;13.30;89.20
56538;DHT22;42435;53.292;6.000;2023-11-19T00:17:26;13.20;89.10
56538;DHT22;42435;53.292;6.000;2023-11-19T00:19:52;13.30;89.10
56538;DHT22;42435;53.292;6.000;2023-11-19T00:22:18;13.30;89.10
56538;DHT22;42435;53.292;6.000;2023-11-19T00:24:43;13.30;89.00
56538;DHT22;42435;53.292;6.000;2023-11-19T00:27:10;13.30;89.00
56538;DHT22;42435;53.292;6.000;2023-11-19T00:29:39;13.40;89.00
56538;DHT22;42435;53.292;6.000;2023-11-19T00:32:05;13.40;88.90
56538;DHT22;42435;53.292;6.000;2023-11-19T00:34:32;13.40;88.90
56538;DHT22;42435;53.292;6.000;2023-11-19T00:36:58;13.40;88.80
56538;DHT22;42435;53.292;6.000;2023-11-19T00:39:27;13.40;88.80
56538;DHT22;42435;53.292;6.000;2023-11-19T00:41:53;13.40;88.80
56538;DHT22;42435;53.292;6.000;2023-11-19T00:44:18;13.40;88.80
56538;DHT22;42435;53.292;6.000;2023-11-19T00:46:45;13.40;88.80
56538;DHT22;42435;53.292;6.000;2023-11-19T00:49:10;13.50;88.70
56538;DHT22;42435;53.292;6.000;2023-11-19T00:51:38;13.50;88.70
56538;DHT22;42435;53.292;6.000;2023-11-19T00:54:05;13.50;88.70
56538;DHT22;42435;53.292;6.000;2023-11-19T00:56:33;13.40;88.70
56538;DHT22;42435;53.292;6.000;2023-11-19T00:58:58;13.50;88.60
56538;DHT22;42435;53.292;6.000;2023-11-19T01:01:25;13.50;88.60
56538;DHT22;42435;53.292;6.000;2023-11-19T01:03:52;13.50;88.60
56538;DHT22;42435;53.292;6.000;2023-11-19T01:06:36;13.50;88.60
56538;DHT22;42435;53.292;6.000;2023-11-19T01:09:01;13.50;88.60
56538;DHT22;42435;53.292;6.000;2023-11-19T01:11:27;13.50;88.50
56538;DHT22;42435;53.292;6.000;2023-11-19T01:13:53;13.50;88.50
56538;DHT22;42435;53.292;6.000;2023-11-19T01:16:19;13.50;88.50
56538;DHT22;42435;53.292;6.000;2023-11-19T01:18:47;13.50;88.50
56538;DHT22;42435;53.292;6.000;2023-11-19T01:21:14;13.50;88.40
56538;DHT22;42435;53.292;6.000;2023-11-19T01:23:40;13.50;88.40
56538;DHT22;42435;53.292;6.000;2023-11-19T01:26:08;13.50;88.40
56538;DHT22;42435;53.292;6.000;2023-11-19T01:28:36;13.50;88.40
56538;DHT22;42435;53.292;6.000;2023-11-19T01:31:01;13.50;88.30
56538;DHT22;42435;53.292;6.000;2023-11-19T01:33:27;13.50;88.30
56538;DHT22;42435;53.292;6.000;2023-11-19T01:35:53;13.50;88.30
56538;DHT22;42435;53.292;6.000;2023-11-19T01:38:19;13.50;88.20
56538;DHT22;42435;53.292;6.000;2023-11-19T01:40:45;13.50;88.10
56538;DHT22;42435;53.292;6.000;2023-11-19T01:43:11;13.50;88.00
56538;DHT22;42435;53.292;6.000;2023-11-19T01:45:37;13.50;88.00
56538;DHT22;42435;53.292;6.000;2023-11-19T01:48:04;13.40;87.90
56538;DHT22;42435;53.292;6.000;2023-11-19T01:50:30;13.40;87.90
56538;DHT22;42435;53.292;6.000;2023-11-19T01:52:57;13.40;87.80
56538;DHT22;42435;53.292;6.000;2023-11-19T01:55:27;13.40;87.80
56538;DHT22;42435;53.292;6.000;2023-11-19T01:57:55;13.40;87.80
56538;DHT22;42435;53.292;6.000;2023-11-19T02:00:28;13.30;87.80
56538;DHT22;42435;53.292;6.000;2023-11-19T02:02:54;13.30;87.70
56538;DHT22;42435;53.292;6.000;2023-11-19T02:05:20;13.30;87.70
56538;DHT22;42435;53.292;6.000;2023-11-19T02:07:46;13.20;87.60
56538;DHT22;42435;53.292;6.000;2023-11-19T02:10:18;13.20;87.50
56538;DHT22;42435;53.292;6.000;2023-11-19T02:12:45;13.20;87.50
56538;DHT22;42435;53.292;6.000;2023-11-19T02:15:11;13.10;87.50
56538;DHT22;42435;53.292;6.000;2023-11-19T02:17:37;13.10;87.50
56538;DHT22;42435;53.292;6.000;2023-11-19T02:20:06;13.10;87.50
56538;DHT22;42435;53.292;6.000;2023-11-19T02:22:35;13.10;87.50
56538;DHT22;42435;53.292;6.000;2023-11-19T02:25:25;13.00;87.50
56538;DHT22;42435;53.292;6.000;2023-11-19T02:27:56;13.10;87.50
56538;DHT22;42435;53.292;6.000;2023-11-19T02:30:22;13.00;87.40
56538;DHT22;42435;53.292;6.000;2023-11-19T02:32:59;13.00;87.30
56538;DHT22;42435;53.292;6.000;2023-11-19T02:35:28;13.00;87.30
56538;DHT22;42435;53.292;6.000;2023-11-19T02:38:01;13.00;87.30
56538;DHT22;42435;53.292;6.000;2023-11-19T02:40:29;12.90;87.30
56538;DHT22;42435;53.292;6.000;2023-11-19T02:42:55;12.90;87.20
56538;DHT22;42435;53.292;6.000;2023-11-19T02:45:25;12.90;87.20
56538;DHT22;42435;53.292;6.000;2023-11-19T02:47:53;12.90;87.20
56538;DHT22;42435;53.292;6.000;2023-11-19T02:50:25;12.90;87.10
56538;DHT22;42435;53.292;6.000;2023-11-19T02:52:52;12.90;87.10
56538;DHT22;42435;53.292;6.000;2023-11-19T02:55:23;12.90;87.10
56538;DHT22;42435;53.292;6.000;2023-11-19T02:57:52;12.90;87.10
56538;DHT22;42435;53.292;6.000;2023-11-19T03:00:22;12.80;87.10
56538;DHT22;42435;53.292;6.000;2023-11-19T03:03:01;12.80;87.00
56538;DHT22;42435;53.292;6.000;2023-11-19T03:05:43;12.80;87.00
56538;DHT22;42435;53.292;6.000;2023-11-19T03:08:10;12.80;87.00
56538;DHT22;42435;53.292;6.000;2023-11-19T03:10:37;12.80;87.00
56538;DHT22;42435;53.292;6.000;2023-11-19T03:13:02;12.80;87.00
56538;DHT22;42435;53.292;6.000;2023-11-19T03:15:28;12.80;87.00
56538;DHT22;42435;53.292;6.000;2023-11-19T03:17:54;12.80;87.00
56538;DHT22;42435;53.292;6.000;2023-11-19T03:20:20;12.80;87.00
56538;DHT22;42435;53.292;6.000;2023-11-19T03:22:46;12.80;87.00
56538;DHT22;42435;53.292;6.000;2023-11-19T03:25:12;12.80;87.00
56538;DHT22;42435;53.292;6.000;2023-11-19T03:27:39;12.90;87.00
56538;DHT22;42435;53.292;6.000;2023-11-19T03:30:07;12.90;87.00
56538;DHT22;42435;53.292;6.000;2023-11-19T03:32:32;12.90;87.00
56538;DHT22;42435;53.292;6.000;2023-11-19T03:35:03;12.90;86.90
56538;DHT22;42435;53.292;6.000;2023-11-19T03:37:32;12.90;86.90
56538;DHT22;42435;53.292;6.000;2023-11-19T03:39:58;12.90;87.00
56538;DHT22;42435;53.292;6.000;2023-11-19T03:42:28;12.90;87.00
56538;DHT22;42435;53.292;6.000;2023-11-19T03:44:54;12.90;87.00
56538;DHT22;42435;53.292;6.000;2023-11-19T03:47:22;12.90;87.00
56538;DHT22;42435;53.292;6.000;2023-11-19T03:49:51;12.90;86.90
56538;DHT22;42435;53.292;6.000;2023-11-19T03:52:19;12.90;86.80
56538;DHT22;42435;53.292;6.000;2023-11-19T03:54:44;12.90;86.70
56538;DHT22;42435;53.292;6.000;2023-11-19T03:57:12;12.90;86.70
56538;DHT22;42435;53.292;6.000;2023-11-19T03:59:37;12.90;86.60
56538;DHT22;42435;53.292;6.000;2023-11-19T04:02:03;12.90;86.50
56538;DHT22;42435;53.292;6.000;2023-11-19T04:04:29;12.90;86.40
56538;DHT22;42435;53.292;6.000;2023-11-19T04:06:57;12.90;86.30
56538;DHT22;42435;53.292;6.000;2023-11-19T04:09:23;12.80;86.10
56538;DHT22;42435;53.292;6.000;2023-11-19T04:11:50;12.80;86.10
56538;DHT22;42435;53.292;6.000;2023-11-19T04:14:15;12.80;86.00
56538;DHT22;42435;53.292;6.000;2023-11-19T04:16:44;12.70;85.90
56538;DHT22;42435;53.292;6.000;2023-11-19T04:19:10;12.70;85.80
56538;DHT22;42435;53.292;6.000;2023-11-19T04:21:39;12.70;85.70
56538;DHT22;42435;53.292;6.000;2023-11-19T04:24:05;12.60;85.70
56538;DHT22;42435;53.292;6.000;2023-11-19T04:26:30;12.60;85.60
56538;DHT22;42435;53.292;6.000;2023-11-19T04:28:56;12.60;85.60
56538;DHT22;42435;53.292;6.000;2023-11-19T04:31:22;12.50;85.60
56538;DHT22;42435;53.292;6.000;2023-11-19T04:33:47;12.50;85.60
56538;DHT22;42435;53.292;6.000;2023-11-19T04:36:13;12.50;85.60
56538;DHT22;42435;53.292;6.000;2023-11-19T04:38:45;12.50;85.60
56538;DHT22;42435;53.292;6.000;2023-11-19T04:41:11;12.50;85.50
56538;DHT22;42435;53.292;6.000;2023-11-19T04:43:38;12.50;85.50
56538;DHT22;42435;53.292;6.000;2023-11-19T04:46:04;12.50;85.40
56538;DHT22;42435;53.292;6.000;2023-11-19T04:48:30;12.50;85.40
56538;DHT22;42435;53.292;6.000;2023-11-19T04:50:55;12.50;85.40
56538;DHT22;42435;53.292;6.000;2023-11-19T04:53:22;12.50;85.40
56538;DHT22;42435;53.292;6.000;2023-11-19T04:55:52;12.50;85.30
56538;DHT22;42435;53.292;6.000;2023-11-19T04:58:19;12.50;85.30
56538;DHT22;42435;53.292;6.000;2023-11-19T05:00:44;12.50;85.30
56538;DHT22;42435;53.292;6.000;2023-11-19T05:03:10;12.50;85.30
56538;DHT22;42435;53.292;6.000;2023-11-19T05:05:36;12.50;85.30
56538;DHT22;42435;53.292;6.000;2023-11-19T05:08:02;12.50;85.30
56538;DHT22;42435;53.292;6.000;2023-11-19T05:10:28;12.50;85.30
56538;DHT22;42435;53.292;6.000;2023-11-19T05:12:53;12.50;85.30
56538;DHT22;42435;53.292;6.000;2023-11-19T05:15:21;12.50;85.30
56538;DHT22;42435;53.292;6.000;2023-11-19T05:17:47;12.50;85.20
56538;DHT22;42435;53.292;6.000;2023-11-19T05:20:12;12.50;85.20
56538;DHT22;42435;53.292;6.000;2023-11-19T05:22:43;12.50;85.10
56538;DHT22;42435;53.292;6.000;2023-11-19T05:25:09;12.50;85.00
56538;DHT22;42435;53.292;6.000;2023-11-19T05:27:36;12.40;85.00
56538;DHT22;42435;53.292;6.000;2023-11-19T05:30:05;12.40;85.00
56538;DHT22;42435;53.292;6.000;2023-11-19T05:32:36;12.40;84.90
56538;DHT22;42435;53.292;6.000;2023-11-19T05:35:02;12.40;84.90
56538;DHT22;42435;53.292;6.000;2023-11-19T05:37:27;12.40;84.90
56538;DHT22;42435;53.292;6.000;2023-11-19T05:39:53;12.40;84.90
56538;DHT22;42435;53.292;6.000;2023-11-19T05:42:18;12.40;84.90
56538;DHT22;42435;53.292;6.000;2023-11-19T05:44:44;12.30;84.90
56538;DHT22;42435;53.292;6.000;2023-11-19T05:47:10;12.30;84.90
56538;DHT22;42435;53.292;6.000;2023-11-19T05:49:36;12.30;84.90
56538;DHT22;42435;53.292;6.000;2023-11-19T05:52:02;12.30;84.80
56538;DHT22;42435;53.292;6.000;2023-11-19T05:54:28;12.30;84.80
56538;DHT22;42435;53.292;6.000;2023-11-19T05:56:54;12.30;84.80
56538;DHT22;42435;53.292;6.000;2023-11-19T05:59:20;12.30;84.80
56538;DHT22;42435;53.292;6.000;2023-11-19T06:01:48;12.20;84.70
56538;DHT22;42435;53.292;6.000;2023-11-19T06:04:13;12.30;84.70
56538;DHT22;42435;53.292;6.000;2023-11-19T06:06:39;12.30;84.70
56538;DHT22;42435;53.292;6.000;2023-11-19T06:09:05;12.30;84.70
56538;DHT22;42435;53.292;6.000;2023-11-19T06:11:33;12.20;84.70
56538;DHT22;42435;53.292;6.000;2023-11-19T06:13:59;12.20;84.60
56538;DHT22;42435;53.292;6.000;2023-11-19T06:16:28;12.20;84.60
56538;DHT22;42435;53.292;6.000;2023-11-19T06:18:53;12.30;84.50
56538;DHT22;42435;53.292;6.000;2023-11-19T06:21:19;12.30;84.50
56538;DHT22;42435;53.292;6.000;2023-11-19T06:23:44;12.30;84.50
56538;DHT22;42435;53.292;6.000;2023-11-19T06:26:13;12.20;84.40
56538;DHT22;42435;53.292;6.000;2023-11-19T06:28:40;12.20;84.30
56538;DHT22;42435;53.292;6.000;2023-11-19T06:31:06;12.20;84.30
56538;DHT22;42435;53.292;6.000;2023-11-19T06:33:32;12.20;84.30
56538;DHT22;42435;53.292;6.000;2023-11-19T06:35:59;12.20;84.30
56538;DHT22;42435;53.292;6.000;2023-11-19T06:38:25;12.20;84.20
56538;DHT22;42435;53.292;6.000;2023-11-19T06:40:50;12.20;84.20
56538;DHT22;42435;53.292;6.000;2023-11-19T06:43:16;12.20;84.10
56538;DHT22;42435;53.292;6.000;2023-11-19T06:45:41;12.20;84.00
56538;DHT22;42435;53.292;6.000;2023-11-19T06:48:07;12.20;84.00
56538;DHT22;42435;53.292;6.000;2023-11-19T06:50:33;12.10;83.90
56538;DHT22;42435;53.292;6.000;2023-11-19T06:52:59;12.20;84.00
56538;DHT22;42435;53.292;6.000;2023-11-19T06:55:27;12.10;84.00
56538;DHT22;42435;53.292;6.000;2023-11-19T06:57:53;12.10;84.10
56538;DHT22;42435;53.292;6.000;2023-11-19T07:00:19;12.10;84.10
56538;DHT22;42435;53.292;6.000;2023-11-19T07:02:45;12.10;84.10
56538;DHT22;42435;53.292;6.000;2023-11-19T07:05:11;12.10;84.10
56538;DHT22;42435;53.292;6.000;2023-11-19T07:07:38;12.10;84.20
56538;DHT22;42435;53.292;6.000;2023-11-19T07:10:06;12.10;84.20
56538;DHT22;42435;53.292;6.000;2023-11-19T07:12:34;12.10;84.30
56538;DHT22;42435;53.292;6.000;2023-11-19T07:15:01;12.10;84.30
56538;DHT22;42435;53.292;6.000;2023-11-19T07:17:29;12.10;84.30
56538;DHT22;42435;53.292;6.000;2023-11-19T07:19:55;12.10;84.30
56538;DHT22;42435;53.292;6.000;2023-11-19T07:22:25;12.00;84.30
56538;DHT22;42435;53.292;6.000;2023-11-19T07:24:51;12.10;84.30
56538;DHT22;42435;53.292;6.000;2023-11-19T07:27:21;12.10;84.30
56538;DHT22;42435;53.292;6.000;2023-11-19T07:29:46;12.10;84.20
56538;DHT22;42435;53.292;6.000;2023-11-19T07:32:12;12.10;84.20
56538;DHT22;42435;53.292;6.000;2023-11-19T07:34:39;12.10;84.10
56538;DHT22;42435;53.292;6.000;2023-11-19T07:37:05;12.20;84.20
56538;DHT22;42435;53.292;6.000;2023-11-19T07:39:32;12.10;84.10
56538;DHT22;42435;53.292;6.000;2023-11-19T07:41:58;12.10;84.00
56538;DHT22;42435;53.292;6.000;2023-11-19T07:44:23;12.10;84.00
56538;DHT22;42435;53.292;6.000;2023-11-19T07:46:50;12.10;83.90
56538;DHT22;42435;53.292;6.000;2023-11-19T07:49:16;12.10;83.90
56538;DHT22;42435;53.292;6.000;2023-11-19T07:51:41;12.10;83.90
56538;DHT22;42435;53.292;6.000;2023-11-19T07:54:07;12.10;83.90
56538;DHT22;42435;53.292;6.000;2023-11-19T07:56:35;12.10;84.00
56538;DHT22;42435;53.292;6.000;2023-11-19T07:59:02;12.10;84.00
56538;DHT22;42435;53.292;6.000;2023-11-19T08:01:27;12.10;84.10
56538;DHT22;42435;53.292;6.000;2023-11-19T08:03:53;12.10;84.10
56538;DHT22;42435;53.292;6.000;2023-11-19T08:06:19;12.10;84.20
56538;DHT22;42435;53.292;6.000;2023-11-19T08:08:47;12.10;84.20
56538;DHT22;42435;53.292;6.000;2023-11-19T08:11:13;12.10;84.30
56538;DHT22;42435;53.292;6.000;2023-11-19T08:13:40;12.20;84.30
56538;DHT22;42435;53.292;6.000;2023-11-19T08:16:06;12.20;84.30
56538;DHT22;42435;53.292;6.000;2023-11-19T08:18:32;12.20;84.20
56538;DHT22;42435;53.292;6.000;2023-11-19T08:20:57;12.20;84.20
56538;DHT22;42435;53.292;6.000;2023-11-19T08:23:25;12.30;84.10
56538;DHT22;42435;53.292;6.000;2023-11-19T08:25:51;12.20;84.10
56538;DHT22;42435;53.292;6.000;2023-11-19T08:28:18;12.30;84.00
56538;DHT22;42435;53.292;6.000;2023-11-19T08:30:43;12.20;84.00
56538;DHT22;42435;53.292;6.000;2023-11-19T08:33:09;12.30;84.00
56538;DHT22;42435;53.292;6.000;2023-11-19T08:35:35;12.30;84.00
56538;DHT22;42435;53.292;6.000;2023-11-19T08:38:01;12.30;84.00
56538;DHT22;42435;53.292;6.000;2023-11-19T08:40:27;12.40;84.00
56538;DHT22;42435;53.292;6.000;2023-11-19T08:42:55;12.40;83.90
56538;DHT22;42435;53.292;6.000;2023-11-19T08:45:21;12.50;83.90
56538;DHT22;42435;53.292;6.000;2023-11-19T08:47:47;12.50;83.80
56538;DHT22;42435;53.292;6.000;2023-11-19T08:50:12;12.50;83.70
56538;DHT22;42435;53.292;6.000;2023-11-19T08:52:38;12.60;83.50
56538;DHT22;42435;53.292;6.000;2023-11-19T08:55:05;12.60;83.50
56538;DHT22;42435;53.292;6.000;2023-11-19T08:57:34;12.60;83.40
56538;DHT22;42435;53.292;6.000;2023-11-19T09:00:00;12.60;83.30
56538;DHT22;42435;53.292;6.000;2023-11-19T09:02:26;12.60;83.20
56538;DHT22;42435;53.292;6.000;2023-11-19T09:04:52;12.70;83.20
56538;DHT22;42435;53.292;6.000;2023-11-19T09:07:18;12.70;83.20
56538;DHT22;42435;53.292;6.000;2023-11-19T09:09:44;12.80;83.10
56538;DHT22;42435;53.292;6.000;2023-11-19T09:12:09;12.80;83.10
56538;DHT22;42435;53.292;6.000;2023-11-19T09:14:35;12.80;82.90
56538;DHT22;42435;53.292;6.000;2023-11-19T09:17:00;12.90;82.80
56538;DHT22;42435;53.292;6.000;2023-11-19T09:19:26;12.90;82.80
56538;DHT22;42435;53.292;6.000;2023-11-19T09:21:53;12.80;82.80
56538;DHT22;42435;53.292;6.000;2023-11-19T09:24:21;12.90;82.70
56538;DHT22;42435;53.292;6.000;2023-11-19T09:26:47;12.90;82.70
56538;DHT22;42435;53.292;6.000;2023-11-19T09:29:14;12.90;82.70
56538;DHT22;42435;53.292;6.000;2023-11-19T09:31:43;12.90;82.60
56538;DHT22;42435;53.292;6.000;2023-11-19T09:34:09;12.90;82.60
56538;DHT22;42435;53.292;6.000;2023-11-19T09:36:34;13.00;82.70
56538;DHT22;42435;53.292;6.000;2023-11-19T09:39:03;12.90;82.70
56538;DHT22;42435;53.292;6.000;2023-11-19T09:41:31;13.00;82.70
56538;DHT22;42435;53.292;6.000;2023-11-19T09:43:58;13.10;82.70
56538;DHT22;42435;53.292;6.000;2023-11-19T09:46:23;13.00;82.50
56538;DHT22;42435;53.292;6.000;2023-11-19T09:48:53;13.10;82.40
56538;DHT22;42435;53.292;6.000;2023-11-19T09:51:22;13.10;82.30
56538;DHT22;42435;53.292;6.000;2023-11-19T09:53:47;13.10;82.20
56538;DHT22;42435;53.292;6.000;2023-11-19T09:56:14;13.10;82.20
56538;DHT22;42435;53.292;6.000;2023-11-19T09:58:40;13.10;82.10
56538;DHT22;42435;53.292;6.000;2023-11-19T10:01:05;13.10;82.00
56538;DHT22;42435;53.292;6.000;2023-11-19T10:03:36;13.20;81.90
56538;DHT22;42435;53.292;6.000;2023-11-19T10:06:08;13.10;81.80
56538;DHT22;42435;53.292;6.000;2023-11-19T10:08:37;13.20;81.80
56538;DHT22;42435;53.292;6.000;2023-11-19T10:11:05;13.20;81.80
56538;DHT22;42435;53.292;6.000;2023-11-19T10:13:31;13.30;81.80
56538;DHT22;42435;53.292;6.000;2023-11-19T10:15:56;13.20;81.80
56538;DHT22;42435;53.292;6.000;2023-11-19T10:18:26;13.30;81.80
56538;DHT22;42435;53.292;6.000;2023-11-19T10:20:52;13.30;81.60
56538;DHT22;42435;53.292;6.000;2023-11-19T10:23:18;13.30;81.60
56538;DHT22;42435;53.292;6.000;2023-11-19T10:25:44;13.30;81.60
56538;DHT22;42435;53.292;6.000;2023-11-19T10:28:09;13.30;81.60
56538;DHT22;42435;53.292;6.000;2023-11-19T10:30:35;13.20;81.70
56538;DHT22;42435;53.292;6.000;2023-11-19T10:33:05;13.20;81.70
56538;DHT22;42435;53.292;6.000;2023-11-19T10:35:35;13.20;81.70
56538;DHT22;42435;53.292;6.000;2023-11-19T10:38:14;13.20;81.80
56538;DHT22;42435;53.292;6.000;2023-11-19T10:40:43;13.10;81.80
56538;DHT22;42435;53.292;6.000;2023-11-19T10:43:08;13.20;81.80
56538;DHT22;42435;53.292;6.000;2023-11-19T10:45:39;13.20;81.90
56538;DHT22;42435;53.292;6.000;2023-11-19T10:48:05;13.20;81.90
56538;DHT22;42435;53.292;6.000;2023-11-19T10:50:34;13.20;81.80
56538;DHT22;42435;53.292;6.000;2023-11-19T10:53:02;13.30;81.70
56538;DHT22;42435;53.292;6.000;2023-11-19T10:55:33;13.20;81.60
56538;DHT22;42435;53.292;6.000;2023-11-19T10:58:02;13.30;81.50
56538;DHT22;42435;53.292;6.000;2023-11-19T11:00:47;13.30;81.50
56538;DHT22;42435;53.292;6.000;2023-11-19T11:03:20;13.30;81.40
56538;DHT22;42435;53.292;6.000;2023-11-19T11:05:50;13.30;81.30
56538;DHT22;42435;53.292;6.000;2023-11-19T11:08:17;13.30;81.20
56538;DHT22;42435;53.292;6.000;2023-11-19T11:10:53;13.30;81.20
56538;DHT22;42435;53.292;6.000;2023-11-19T11:13:20;13.30;81.20
56538;DHT22;42435;53.292;6.000;2023-11-19T11:15:48;13.30;81.20
56538;DHT22;42435;53.292;6.000;2023-11-19T11:18:14;13.40;81.20
56538;DHT22;42435;53.292;6.000;2023-11-19T11:20:44;13.40;81.10
56538;DHT22;42435;53.292;6.000;2023-11-19T11:28:59;13.50;80.80
56538;DHT22;42435;53.292;6.000;2023-11-19T11:34:29;13.50;80.70
56538;DHT22;42435;53.292;6.000;2023-11-19T11:37:16;13.60;80.80
56538;DHT22;42435;53.292;6.000;2023-11-19T11:39:47;13.60;80.80
56538;DHT22;42435;53.292;6.000;2023-11-19T11:45:12;13.70;81.10
56538;DHT22;42435;53.292;6.000;2023-11-19T11:50:09;13.60;80.90
56538;DHT22;42435;53.292;6.000;2023-11-19T11:55:37;13.50;81.50
56538;DHT22;42435;53.292;6.000;2023-11-19T11:58:21;13.50;81.90
56538;DHT22;42435;53.292;6.000;2023-11-19T12:00:48;13.50;82.20
56538;DHT22;42435;53.292;6.000;2023-11-19T12:03:14;13.50;82.70
56538;DHT22;42435;53.292;6.000;2023-11-19T12:05:45;13.60;83.10
56538;DHT22;42435;53.292;6.000;2023-11-19T12:08:16;13.70;83.30
56538;DHT22;42435;53.292;6.000;2023-11-19T12:10:52;13.70;83.00
56538;DHT22;42435;53.292;6.000;2023-11-19T12:13:19;13.80;82.70
56538;DHT22;42435;53.292;6.000;2023-11-19T12:18:32;13.70;82.00
56538;DHT22;42435;53.292;6.000;2023-11-19T12:21:00;13.70;81.90
56538;DHT22;42435;53.292;6.000;2023-11-19T12:23:28;13.60;81.90
56538;DHT22;42435;53.292;6.000;2023-11-19T12:25:54;13.60;81.80
56538;DHT22;42435;53.292;6.000;2023-11-19T12:28:20;13.60;81.80
56538;DHT22;42435;53.292;6.000;2023-11-19T12:30:47;13.50;81.70
56538;DHT22;42435;53.292;6.000;2023-11-19T12:33:14;13.50;81.70
56538;DHT22;42435;53.292;6.000;2023-11-19T12:35:40;13.50;81.70
56538;DHT22;42435;53.292;6.000;2023-11-19T12:38:06;13.40;81.70
56538;DHT22;42435;53.292;6.000;2023-11-19T12:40:32;13.40;81.80
56538;DHT22;42435;53.292;6.000;2023-11-19T12:42:58;13.40;81.80
56538;DHT22;42435;53.292;6.000;2023-11-19T12:45:35;13.40;81.60
56538;DHT22;42435;53.292;6.000;2023-11-19T12:48:05;13.40;81.50
56538;DHT22;42435;53.292;6.000;2023-11-19T12:50:56;13.40;81.30
56538;DHT22;42435;53.292;6.000;2023-11-19T12:53:27;13.30;81.30
56538;DHT22;42435;53.292;6.000;2023-11-19T12:55:54;13.30;81.30
56538;DHT22;42435;53.292;6.000;2023-11-19T12:58:33;13.40;81.40
56538;DHT22;42435;53.292;6.000;2023-11-19T13:01:03;13.40;81.30
56538;DHT22;42435;53.292;6.000;2023-11-19T13:03:36;13.40;81.30
56538;DHT22;42435;53.292;6.000;2023-11-19T13:06:06;13.40;81.30
56538;DHT22;42435;53.292;6.000;2023-11-19T13:08:45;13.40;81.30
56538;DHT22;42435;53.292;6.000;2023-11-19T13:11:12;13.40;81.20
56538;DHT22;42435;53.292;6.000;2023-11-19T13:14:17;13.40;81.20
56538;DHT22;42435;53.292;6.000;2023-11-19T13:16:43;13.40;81.20
56538;DHT22;42435;53.292;6.000;2023-11-19T13:19:11;13.40;81.00
56538;DHT22;42435;53.292;6.000;2023-11-19T13:21:37;13.40;81.00
56538;DHT22;42435;53.292;6.000;2023-11-19T13:24:03;13.40;81.00
56538;DHT22;42435;53.292;6.000;2023-11-19T13:26:29;13.30;81.00
56538;DHT22;42435;53.292;6.000;2023-11-19T13:28:56;13.40;81.10
56538;DHT22;42435;53.292;6.000;2023-11-19T13:31:22;13.30;81.00
56538;DHT22;42435;53.292;6.000;2023-11-19T13:33:48;13.30;81.00
56538;DHT22;42435;53.292;6.000;2023-11-19T13:36:14;13.30;81.20
56538;DHT22;42435;53.292;6.000;2023-11-19T13:38:40;13.30;81.30
56538;DHT22;42435;53.292;6.000;2023-11-19T13:41:11;13.20;81.30
56538;DHT22;42435;53.292;6.000;2023-11-19T13:43:37;13.20;81.50
56538;DHT22;42435;53.292;6.000;2023-11-19T13:46:03;13.20;81.70
56538;DHT22;42435;53.292;6.000;2023-11-19T13:48:29;13.20;81.90
56538;DHT22;42435;53.292;6.000;2023-11-19T13:50:55;13.10;82.00
56538;DHT22;42435;53.292;6.000;2023-11-19T13:53:22;13.10;82.00
56538;DHT22;42435;53.292;6.000;2023-11-19T13:55:49;13.10;82.00
56538;DHT22;42435;53.292;6.000;2023-11-19T13:58:15;13.10;82.10
56538;DHT22;42435;53.292;6.000;2023-11-19T14:00:41;13.00;82.10
56538;DHT22;42435;53.292;6.000;2023-11-19T14:03:09;13.00;82.20
56538;DHT22;42435;53.292;6.000;2023-11-19T14:05:37;13.00;82.20
56538;DHT22;42435;53.292;6.000;2023-11-19T14:08:05;13.00;82.20
56538;DHT22;42435;53.292;6.000;2023-11-19T14:10:38;13.00;82.20
56538;DHT22;42435;53.292;6.000;2023-11-19T14:13:06;13.00;82.10
56538;DHT22;42435;53.292;6.000;2023-11-19T14:15:31;13.00;82.00
56538;DHT22;42435;53.292;6.000;2023-11-19T14:17:57;13.00;82.10
56538;DHT22;42435;53.292;6.000;2023-11-19T14:20:23;13.00;82.10
56538;DHT22;42435;53.292;6.000;2023-11-19T14:22:49;13.00;82.20
56538;DHT22;42435;53.292;6.000;2023-11-19T14:25:16;12.90;82.20
56538;DHT22;42435;53.292;6.000;2023-11-19T14:27:42;13.00;82.20
56538;DHT22;42435;53.292;6.000;2023-11-19T14:30:10;12.90;82.30
56538;DHT22;42435;53.292;6.000;2023-11-19T14:32:40;12.90;82.40
56538;DHT22;42435;53.292;6.000;2023-11-19T14:35:06;12.90;82.50
56538;DHT22;42435;53.292;6.000;2023-11-19T14:37:32;12.90;82.70
56538;DHT22;42435;53.292;6.000;2023-11-19T14:39:58;12.90;82.70
56538;DHT22;42435;53.292;6.000;2023-11-19T14:42:27;12.90;82.70
56538;DHT22;42435;53.292;6.000;2023-11-19T14:44:53;12.80;82.70
56538;DHT22;42435;53.292;6.000;2023-11-19T14:47:22;12.90;82.80
56538;DHT22;42435;53.292;6.000;2023-11-19T14:49:49;12.80;82.80
56538;DHT22;42435;53.292;6.000;2023-11-19T14:52:15;12.80;82.80
56538;DHT22;42435;53.292;6.000;2023-11-19T14:54:41;12.80;82.80
56538;DHT22;42435;53.292;6.000;2023-11-19T14:57:07;12.80;82.80
56538;DHT22;42435;53.292;6.000;2023-11-19T14:59:36;12.80;82.80
56538;DHT22;42435;53.292;6.000;2023-11-19T15:02:03;12.70;82.70
56538;DHT22;42435;53.292;6.000;2023-11-19T15:04:29;12.70;82.70
56538;DHT22;42435;53.292;6.000;2023-11-19T15:06:59;12.70;82.60
56538;DHT22;42435;53.292;6.000;2023-11-19T15:09:25;12.70;82.60
56538;DHT22;42435;53.292;6.000;2023-11-19T15:11:53;12.70;82.60
56538;DHT22;42435;53.292;6.000;2023-11-19T15:14:19;12.70;82.60
56538;DHT22;42435;53.292;6.000;2023-11-19T15:16:46;12.70;82.50
56538;DHT22;42435;53.292;6.000;2023-11-19T15:19:12;12.70;82.50
56538;DHT22;42435;53.292;6.000;2023-11-19T15:21:39;12.70;82.60
56538;DHT22;42435;53.292;6.000;2023-11-19T15:24:06;12.70;82.50
56538;DHT22;42435;53.292;6.000;2023-11-19T15:26:36;12.70;82.50
56538;DHT22;42435;53.292;6.000;2023-11-19T15:29:05;12.70;82.40
56538;DHT22;42435;53.292;6.000;2023-11-19T15:31:31;12.70;82.40
56538;DHT22;42435;53.292;6.000;2023-11-19T15:33:57;12.70;82.30
56538;DHT22;42435;53.292;6.000;2023-11-19T15:36:22;12.70;82.30
56538;DHT22;42435;53.292;6.000;2023-11-19T15:38:48;12.70;82.40
56538;DHT22;42435;53.292;6.000;2023-11-19T15:41:14;12.70;82.40
56538;DHT22;42435;53.292;6.000;2023-11-19T15:43:40;12.70;82.40
56538;DHT22;42435;53.292;6.000;2023-11-19T15:46:09;12.60;82.50
56538;DHT22;42435;53.292;6.000;2023-11-19T15:48:37;12.60;82.70
56538;DHT22;42435;53.292;6.000;2023-11-19T15:51:03;12.60;82.80